Time;durP1;ratioP1;P1;durP2;ratioP2;P2;SDS_P1;SDS_P2;PMS_P1;PMS_P2;Temp;Humidity;BMP_temperature;BMP_pressure;BME280_temperature;BME280_humidity;BME280_pressure;Samples;Min_cycle;Max_cycle;Signal;HPM_P1;HPM_P2
2022/12/19 00:03:20;;;;;;;7.10;4.22;;;;;;;;;;10366532;28;20044;-62
2022/12/19 00:08:21;;;;;;;6.55;4.45;;;;;;;;;;10365390;28;20022;-63
2022/12/19 00:13:22;;;;;;;7.70;4.28;;;;;;;;;;10364876;28;20084;-62
2022/12/19 00:18:22;;;;;;;8.93;4.57;;;;;;;;;;10363431;28;20064;-63
2022/12/19 00:23:23;;;;;;;6.20;4.07;;;;;;;;;;10365122;28;20026;-63
2022/12/19 00:28:23;;;;;;;6.63;4.45;;;;;;;;;;10365767;28;20144;-63
2022/12/19 00:33:24;;;;;;;6.00;4.53;;;;;;;;;;10351530;28;20382;-62
2022/12/19 00:38:25;;;;;;;6.68;4.50;;;;;;;;;;10360371;28;20026;-65
2022/12/19 00:43:25;;;;;;;7.00;4.40;;;;;;;;;;10354793;28;20396;-64
2022/12/19 00:48:26;;;;;;;7.35;4.07;;;;;;;;;;10352746;28;20393;-62
2022/12/19 00:53:27;;;;;;;6.75;4.75;;;;;;;;;;10351489;28;20432;-62
2022/12/19 00:58:28;;;;;;;6.47;4.10;;;;;;;;;;10350353;28;20031;-62
2022/12/19 01:03:29;;;;;;;5.85;4.20;;;;;;;;;;10365153;28;20049;-63
2022/12/19 01:08:30;;;;;;;7.60;4.43;;;;;;;;;;10363356;28;20025;-63
2022/12/19 01:13:33;;;;;;;5.18;3.75;;;;;;;;;;10363349;28;20582;-62
2022/12/19 01:18:34;;;;;;;4.55;3.70;;;;;;;;;;10361718;28;20245;-62
2022/12/19 01:23:35;;;;;;;5.22;4.00;;;;;;;;;;10363222;28;20300;-63
2022/12/19 01:28:35;;;;;;;4.85;3.78;;;;;;;;;;10350286;28;20069;-62
2022/12/19 01:33:36;;;;;;;6.53;4.03;;;;;;;;;;10364761;28;20026;-62
2022/12/19 01:38:37;;;;;;;5.45;4.25;;;;;;;;;;10355879;28;20026;-62
2022/12/19 01:44:05;;;;;;;5.65;4.15;;;;;;;;;;10358355;28;20018;-67
2022/12/19 01:49:46;;;;;;;6.47;4.32;;;;;;;;;;10367320;28;20557;-66
2022/12/19 01:54:47;;;;;;;8.10;4.07;;;;;;;;;;10330780;28;20069;-66
2022/12/19 01:59:53;;;;;;;6.53;3.63;;;;;;;;;;10358193;28;20044;-66
2022/12/19 02:04:54;;;;;;;6.00;4.07;;;;;;;;;;10368239;28;20033;-68
2022/12/19 02:09:56;;;;;;;5.32;3.92;;;;;;;;;;10364582;28;20484;-64
2022/12/19 02:14:59;;;;;;;4.57;4.05;;;;;;;;;;10362890;28;20029;-63
2022/12/19 02:20:20;;;;;;;5.13;3.97;;;;;;;;;;10368457;28;20018;-64
2022/12/19 02:26:02;;;;;;;6.05;4.15;;;;;;;;;;10367434;28;20034;-63
2022/12/19 02:31:14;;;;;;;4.78;3.72;;;;;;;;;;10353006;28;20030;-64
2022/12/19 02:36:20;;;;;;;6.35;4.15;;;;;;;;;;10348254;28;20034;-64
2022/12/19 02:41:43;;;;;;;5.07;3.40;;;;;;;;;;10367532;28;20061;-64
2022/12/19 02:46:46;;;;;;;4.70;3.72;;;;;;;;;;10353821;28;20057;-65
2022/12/19 02:51:46;;;;;;;6.97;3.65;;;;;;;;;;10343570;28;20422;-66
2022/12/19 02:57:17;;;;;;;4.63;3.58;;;;;;;;;;10367129;28;20045;-63
2022/12/19 03:02:34;;;;;;;5.55;3.83;;;;;;;;;;10323488;28;20413;-63
2022/12/19 03:08:02;;;;;;;4.07;3.53;;;;;;;;;;10364995;28;20105;-63
2022/12/19 03:13:22;;;;;;;5.47;4.00;;;;;;;;;;10353688;28;20378;-63
2022/12/19 03:18:23;;;;;;;5.13;3.40;;;;;;;;;;10363932;28;20366;-63
2022/12/19 03:23:23;;;;;;;5.10;3.75;;;;;;;;;;10367654;28;20114;-64
2022/12/19 03:28:57;;;;;;;4.10;3.70;;;;;;;;;;10365806;28;20045;-63
2022/12/19 03:34:03;;;;;;;4.00;3.60;;;;;;;;;;10360928;28;20537;-63
2022/12/19 03:39:07;;;;;;;4.53;3.45;;;;;;;;;;10360712;28;20149;-64
2022/12/19 03:44:10;;;;;;;6.78;3.88;;;;;;;;;;10357060;28;20030;-63
2022/12/19 03:49:12;;;;;;;5.20;3.90;;;;;;;;;;10379666;28;20295;-63
2022/12/19 03:54:27;;;;;;;4.35;3.83;;;;;;;;;;10366375;28;20120;-64
2022/12/19 03:59:50;;;;;;;4.40;3.85;;;;;;;;;;10379109;28;20026;-63
2022/12/19 04:05:00;;;;;;;4.78;3.60;;;;;;;;;;10350453;28;20030;-64
2022/12/19 04:10:05;;;;;;;3.95;3.50;;;;;;;;;;10342595;28;20481;-63
2022/12/19 04:15:07;;;;;;;4.75;3.45;;;;;;;;;;10377582;28;20061;-66
2022/12/19 04:20:20;;;;;;;7.10;3.53;;;;;;;;;;10366222;28;20116;-64
2022/12/19 04:25:28;;;;;;;4.10;3.50;;;;;;;;;;10364609;28;20038;-63
2022/12/19 04:30:29;;;;;;;4.97;3.95;;;;;;;;;;10365771;28;20108;-64
2022/12/19 04:35:29;;;;;;;4.72;3.75;;;;;;;;;;10379960;28;20073;-64
2022/12/19 04:40:30;;;;;;;4.18;3.50;;;;;;;;;;10350637;28;20126;-63
2022/12/19 04:45:30;;;;;;;3.67;3.10;;;;;;;;;;10365109;28;20026;-64
2022/12/19 04:50:33;;;;;;;5.50;4.05;;;;;;;;;;10352408;28;20021;-63
2022/12/19 04:55:33;;;;;;;6.80;3.33;;;;;;;;;;10364360;28;20025;-63
2022/12/19 05:00:34;;;;;;;3.72;3.30;;;;;;;;;;10339029;28;20062;-63
2022/12/19 05:05:35;;;;;;;4.20;3.63;;;;;;;;;;10362133;28;20493;-65
2022/12/19 05:10:36;;;;;;;3.88;3.45;;;;;;;;;;10350542;28;20037;-66
2022/12/19 05:15:36;;;;;;;4.50;3.50;;;;;;;;;;10364036;28;20026;-64
2022/12/19 05:20:37;;;;;;;3.60;3.30;;;;;;;;;;10364015;28;20026;-64
2022/12/19 05:25:38;;;;;;;5.10;3.33;;;;;;;;;;10362206;28;20045;-63
2022/12/19 05:30:38;;;;;;;3.67;3.08;;;;;;;;;;10350705;28;20029;-64
2022/12/19 05:35:39;;;;;;;5.70;3.72;;;;;;;;;;10363337;28;20032;-64
2022/12/19 05:40:40;;;;;;;6.57;3.38;;;;;;;;;;10363350;28;20068;-63
2022/12/19 05:45:40;;;;;;;4.28;3.45;;;;;;;;;;10363295;28;20026;-65
2022/12/19 05:50:45;;;;;;;4.50;3.58;;;;;;;;;;10363313;28;20076;-65
2022/12/19 05:55:46;;;;;;;3.78;3.22;;;;;;;;;;10349392;28;21372;-63
2022/12/19 06:00:46;;;;;;;3.97;3.25;;;;;;;;;;10362980;28;20037;-64
2022/12/19 06:05:47;;;;;;;3.63;3.25;;;;;;;;;;10364367;28;20088;-65
2022/12/19 06:10:47;;;;;;;3.88;3.35;;;;;;;;;;10358372;28;20030;-64
2022/12/19 06:15:48;;;;;;;4.30;3.60;;;;;;;;;;10363690;28;20112;-65
2022/12/19 06:21:00;;;;;;;3.58;3.28;;;;;;;;;;10365849;28;20033;-63
2022/12/19 06:26:04;;;;;;;4.25;3.70;;;;;;;;;;10369745;28;20439;-64
2022/12/19 06:31:06;;;;;;;3.63;2.90;;;;;;;;;;10369041;28;20555;-62
2022/12/19 06:36:13;;;;;;;5.25;3.72;;;;;;;;;;10369321;28;20065;-64
2022/12/19 06:46:33;;;;;;;6.60;4.88;;;;;;;;;;10380022;28;20105;-64
2022/12/19 06:51:34;;;;;;;7.70;5.43;;;;;;;;;;10365617;28;20034;-64
2022/12/19 06:56:36;;;;;;;10.20;4.88;;;;;;;;;;10365555;28;20032;-63
2022/12/19 07:02:02;;;;;;;5.80;4.85;;;;;;;;;;10363558;28;20129;-64
2022/12/19 07:07:03;;;;;;;11.85;4.30;;;;;;;;;;10373945;28;20478;-64
2022/12/19 07:12:04;;;;;;;9.48;5.32;;;;;;;;;;10355782;28;20084;-67
2022/12/19 07:17:05;;;;;;;17.48;5.03;;;;;;;;;;10353722;28;20036;-65
2022/12/19 07:22:06;;;;;;;30.60;5.40;;;;;;;;;;10366349;28;20026;-68
2022/12/19 07:27:06;;;;;;;14.68;4.40;;;;;;;;;;10366619;28;20409;-65
2022/12/19 07:32:07;;;;;;;27.38;4.90;;;;;;;;;;10366688;28;20057;-68
2022/12/19 07:37:07;;;;;;;9.35;4.60;;;;;;;;;;10366971;28;20037;-65
2022/12/19 07:42:08;;;;;;;14.88;4.55;;;;;;;;;;10365603;28;20014;-64
2022/12/19 07:47:09;;;;;;;10.02;5.72;;;;;;;;;;10363344;28;20027;-65
2022/12/19 07:52:09;;;;;;;13.82;4.55;;;;;;;;;;10345056;28;20458;-65
2022/12/19 07:57:10;;;;;;;10.65;4.55;;;;;;;;;;10366000;28;20508;-68
2022/12/19 08:02:10;;;;;;;11.60;5.32;;;;;;;;;;10367007;28;20033;-65
2022/12/19 08:07:11;;;;;;;11.35;4.43;;;;;;;;;;10366069;28;20029;-67
2022/12/19 08:12:14;;;;;;;10.73;4.68;;;;;;;;;;10363425;28;20049;-65
2022/12/19 08:17:21;;;;;;;5.63;4.03;;;;;;;;;;10365637;28;20084;-70
2022/12/19 08:22:22;;;;;;;10.30;4.35;;;;;;;;;;10365006;28;20029;-67
2022/12/19 08:27:23;;;;;;;15.98;5.47;;;;;;;;;;10362875;28;20060;-71
2022/12/19 08:32:23;;;;;;;8.13;4.38;;;;;;;;;;10356747;28;20037;-66
2022/12/19 08:37:24;;;;;;;9.85;4.15;;;;;;;;;;10364883;28;20042;-66
2022/12/19 08:42:25;;;;;;;8.75;4.35;;;;;;;;;;10364757;28;20022;-65
2022/12/19 08:47:25;;;;;;;7.45;3.90;;;;;;;;;;10364027;28;20022;-65
2022/12/19 08:52:28;;;;;;;10.88;4.22;;;;;;;;;;10359779;28;20226;-67
2022/12/19 08:57:29;;;;;;;10.25;4.45;;;;;;;;;;10358805;28;20482;-66
2022/12/19 09:02:30;;;;;;;8.73;4.50;;;;;;;;;;10360552;28;20030;-72
2022/12/19 09:07:30;;;;;;;10.90;4.45;;;;;;;;;;10361790;28;20026;-64
2022/12/19 09:12:31;;;;;;;4.68;3.92;;;;;;;;;;10364199;28;20490;-65
2022/12/19 09:17:31;;;;;;;7.22;3.75;;;;;;;;;;10363389;28;20034;-65
2022/12/19 09:22:32;;;;;;;11.05;4.18;;;;;;;;;;10362977;28;20076;-68
2022/12/19 09:27:32;;;;;;;11.35;5.15;;;;;;;;;;10346890;28;20045;-68
2022/12/19 09:32:33;;;;;;;6.50;4.28;;;;;;;;;;10348267;28;20025;-72
2022/12/19 09:37:34;;;;;;;6.70;4.38;;;;;;;;;;10348779;28;20034;-67
2022/12/19 09:42:56;;;;;;;7.05;4.53;;;;;;;;;;10333645;28;20027;-66
2022/12/19 09:47:57;;;;;;;6.13;3.97;;;;;;;;;;10345567;28;20029;-73
2022/12/19 09:53:09;;;;;;;12.02;4.20;;;;;;;;;;10351537;28;20451;-68
2022/12/19 09:58:17;;;;;;;6.15;4.32;;;;;;;;;;10341138;28;20068;-72
2022/12/19 10:03:28;;;;;;;5.83;4.37;;;;;;;;;;10364043;28;20033;-73
2022/12/19 10:08:47;;;;;;;4.68;3.63;;;;;;;;;;10367983;28;20018;-71
2022/12/19 10:14:26;;;;;;;5.85;4.10;;;;;;;;;;10363970;28;20022;-70
2022/12/19 10:20:00;;;;;;;5.80;3.95;;;;;;;;;;10362446;28;20041;-73
2022/12/19 10:25:40;;;;;;;5.47;3.85;;;;;;;;;;10356818;28;20160;-69
2022/12/19 10:30:52;;;;;;;7.82;4.13;;;;;;;;;;10363564;28;20045;-71
2022/12/19 10:35:57;;;;;;;8.80;4.20;;;;;;;;;;10367068;28;20099;-68
2022/12/19 10:41:23;;;;;;;5.50;4.05;;;;;;;;;;10365863;28;20124;-72
2022/12/19 10:46:51;;;;;;;5.18;3.83;;;;;;;;;;10360797;28;20533;-68
2022/12/19 10:51:55;;;;;;;8.85;4.80;;;;;;;;;;10361029;28;20026;-66
2022/12/19 10:57:21;;;;;;;10.88;4.68;;;;;;;;;;10366505;28;20061;-73
2022/12/19 11:02:34;;;;;;;4.97;3.50;;;;;;;;;;10360323;28;20033;-70
2022/12/19 11:07:34;;;;;;;7.03;4.43;;;;;;;;;;10367440;28;20037;-68
2022/12/19 11:12:35;;;;;;;5.18;3.97;;;;;;;;;;10362076;28;20517;-67
2022/12/19 11:17:37;;;;;;;6.45;4.65;;;;;;;;;;10349738;28;20361;-65
2022/12/19 11:22:39;;;;;;;7.47;4.68;;;;;;;;;;10367475;28;20022;-74
2022/12/19 11:27:42;;;;;;;4.97;4.25;;;;;;;;;;10374276;28;20379;-67
2022/12/19 11:32:46;;;;;;;7.88;4.70;;;;;;;;;;10361719;28;20022;-74
2022/12/19 11:37:56;;;;;;;8.27;5.07;;;;;;;;;;10349485;28;20030;-75
2022/12/19 11:43:20;;;;;;;7.50;4.55;;;;;;;;;;10364687;28;20501;-68
2022/12/19 11:48:34;;;;;;;7.50;4.50;;;;;;;;;;10364572;28;20105;-73
2022/12/19 11:54:04;;;;;;;8.02;4.50;;;;;;;;;;10355409;28;20124;-72
2022/12/19 11:59:19;;;;;;;6.25;4.38;;;;;;;;;;10365200;28;20037;-72
2022/12/19 12:04:58;;;;;;;7.32;4.38;;;;;;;;;;10362080;28;20382;-69
2022/12/19 12:10:18;;;;;;;5.70;4.50;;;;;;;;;;10331798;28;20030;-75
2022/12/19 12:15:54;;;;;;;5.97;4.45;;;;;;;;;;10364619;28;20477;-73
2022/12/19 12:21:24;;;;;;;8.35;4.88;;;;;;;;;;10357947;28;20100;-72
2022/12/19 12:27:05;;;;;;;10.93;5.38;;;;;;;;;;10353193;28;20033;-72
2022/12/19 12:32:39;;;;;;;6.53;4.22;;;;;;;;;;10359173;28;20106;-71
2022/12/19 12:37:53;;;;;;;7.63;4.60;;;;;;;;;;10349775;28;20044;-73
2022/12/19 12:43:32;;;;;;;7.38;4.07;;;;;;;;;;10361225;28;20022;-69
2022/12/19 12:49:01;;;;;;;9.32;4.68;;;;;;;;;;10362713;28;20030;-70
2022/12/19 12:54:12;;;;;;;7.68;4.35;;;;;;;;;;10357610;28;20042;-67
2022/12/19 12:59:28;;;;;;;6.75;5.00;;;;;;;;;;10370915;28;20482;-73
2022/12/19 13:04:33;;;;;;;6.70;4.75;;;;;;;;;;10359967;28;20041;-73
2022/12/19 13:09:35;;;;;;;7.72;4.97;;;;;;;;;;10376854;28;20112;-66
2022/12/19 13:14:39;;;;;;;7.03;4.95;;;;;;;;;;10359736;28;20095;-67
2022/12/19 13:20:16;;;;;;;9.85;5.10;;;;;;;;;;10354747;28;20077;-69
2022/12/19 13:25:46;;;;;;;8.85;5.00;;;;;;;;;;10352212;28;20046;-67
2022/12/19 13:31:04;;;;;;;8.13;5.13;;;;;;;;;;10367098;28;20029;-69
2022/12/19 13:36:37;;;;;;;;;;;;;;;;;;10355816;28;20080;-68
2022/12/19 13:47:01;;;;;;;8.80;5.00;;;;;;;;;;10363711;28;20030;-70
2022/12/19 13:52:03;;;;;;;10.40;5.15;;;;;;;;;;10370344;28;20030;-68
2022/12/19 13:57:30;;;;;;;9.68;5.63;;;;;;;;;;10367867;28;20096;-69
2022/12/19 14:02:34;;;;;;;9.88;5.13;;;;;;;;;;10368448;28;20268;-66
2022/12/19 14:07:39;;;;;;;8.27;5.60;;;;;;;;;;10357194;28;20037;-66
2022/12/19 14:18:17;;;;;;;8.50;4.85;;;;;;;;;;10341896;28;20057;-68
2022/12/19 14:23:17;;;;;;;6.80;4.78;;;;;;;;;;10350459;28;20124;-68
2022/12/19 14:28:26;;;;;;;7.82;5.53;;;;;;;;;;10351668;28;20053;-72
2022/12/19 14:33:54;;;;;;;9.07;5.55;;;;;;;;;;10349044;28;20030;-72
2022/12/19 14:38:55;;;;;;;6.90;4.93;;;;;;;;;;10361319;28;20502;-72
2022/12/19 14:43:55;;;;;;;10.27;4.88;;;;;;;;;;10357443;28;20041;-69
2022/12/19 14:49:02;;;;;;;6.38;4.80;;;;;;;;;;10360994;28;20072;-67
2022/12/19 14:54:20;;;;;;;8.80;5.25;;;;;;;;;;10368579;28;20037;-72
2022/12/19 14:59:20;;;;;;;8.60;5.40;;;;;;;;;;10363604;28;20101;-69
2022/12/19 15:04:26;;;;;;;5.10;4.50;;;;;;;;;;10354240;28;20084;-73
2022/12/19 15:09:27;;;;;;;6.30;4.63;;;;;;;;;;10373884;28;20473;-71
2022/12/19 15:14:40;;;;;;;7.72;4.60;;;;;;;;;;10360752;28;20034;-68
2022/12/19 15:19:41;;;;;;;6.22;4.97;;;;;;;;;;10360099;28;20409;-68
2022/12/19 15:29:48;;;;;;;6.05;4.80;;;;;;;;;;10326939;28;20464;-60
2022/12/19 15:34:48;;;;;;;7.90;5.55;;;;;;;;;;10334112;28;20092;-60
2022/12/19 15:39:58;;;;;;;5.53;4.35;;;;;;;;;;10328564;28;21058;-59
2022/12/19 15:44:59;;;;;;;9.25;4.88;;;;;;;;;;10322620;28;20034;-60
2022/12/19 15:50:13;;;;;;;6.88;5.25;;;;;;;;;;10326164;28;20034;-54
2022/12/19 15:55:18;;;;;;;8.40;5.43;;;;;;;;;;10323588;28;20034;-54
2022/12/19 16:00:31;;;;;;;6.10;4.85;;;;;;;;;;10321532;28;20042;-53
2022/12/19 16:05:31;;;;;;;7.07;4.88;;;;;;;;;;10313065;28;20026;-56
2022/12/19 16:10:33;;;;;;;6.22;5.00;;;;;;;;;;10316551;28;20042;-56
2022/12/19 16:15:34;;;;;;;8.27;4.85;;;;;;;;;;10324454;28;20386;-54
2022/12/19 16:20:36;;;;;;;6.72;4.85;;;;;;;;;;10326225;28;20054;-56
2022/12/19 16:25:50;;;;;;;8.40;5.13;;;;;;;;;;10323212;28;20054;-56
2022/12/19 16:30:51;;;;;;;13.18;5.10;;;;;;;;;;10325805;28;20035;-56
2022/12/19 16:35:52;;;;;;;7.32;4.90;;;;;;;;;;10317318;28;20026;-56
2022/12/19 16:40:55;;;;;;;6.82;5.03;;;;;;;;;;10314659;28;20478;-57
2022/12/19 16:45:56;;;;;;;7.60;5.72;;;;;;;;;;10314708;28;20038;-56
2022/12/19 16:50:58;;;;;;;9.25;5.38;;;;;;;;;;10324579;28;20195;-54
2022/12/19 16:55:59;;;;;;;9.25;5.63;;;;;;;;;;10326910;28;20246;-55
2022/12/19 17:01:00;;;;;;;11.73;6.20;;;;;;;;;;10323471;28;20030;-56
2022/12/19 17:06:00;;;;;;;8.93;5.60;;;;;;;;;;10322505;28;20398;-56
2022/12/19 17:11:01;;;;;;;9.63;6.20;;;;;;;;;;10322700;28;21642;-56
2022/12/19 17:16:03;;;;;;;13.50;6.45;;;;;;;;;;10323236;28;20038;-55
2022/12/19 17:21:04;;;;;;;10.00;6.07;;;;;;;;;;10323355;28;20046;-54
2022/12/19 17:26:04;;;;;;;9.52;5.40;;;;;;;;;;10317650;28;20030;-52
2022/12/19 17:31:16;;;;;;;11.60;5.97;;;;;;;;;;10316485;28;20135;-60
2022/12/19 17:36:17;;;;;;;13.70;5.72;;;;;;;;;;10314070;28;20177;-55
2022/12/19 17:41:17;;;;;;;7.47;5.90;;;;;;;;;;10332594;28;20034;-53
2022/12/19 17:46:21;;;;;;;8.23;6.03;;;;;;;;;;10318986;28;20467;-55
2022/12/19 17:51:23;;;;;;;7.68;5.63;;;;;;;;;;10321566;28;20061;-57
2022/12/19 17:56:24;;;;;;;8.02;5.75;;;;;;;;;;10328740;28;20037;-55
2022/12/19 18:01:24;;;;;;;9.02;5.70;;;;;;;;;;10318327;28;20034;-54
2022/12/19 18:06:25;;;;;;;10.60;5.93;;;;;;;;;;10317450;28;20030;-52
2022/12/19 18:11:25;;;;;;;10.07;6.50;;;;;;;;;;10318721;28;20054;-53
2022/12/19 18:16:29;;;;;;;10.55;5.70;;;;;;;;;;10320816;28;20042;-59
2022/12/19 18:21:30;;;;;;;9.00;6.32;;;;;;;;;;10337962;28;20034;-56
2022/12/19 18:26:30;;;;;;;9.23;5.95;;;;;;;;;;10334500;28;20386;-57
2022/12/19 18:31:31;;;;;;;10.82;6.63;;;;;;;;;;10332063;28;20382;-57
2022/12/19 18:36:41;;;;;;;7.50;5.88;;;;;;;;;;10330115;28;20058;-57
2022/12/19 18:41:41;;;;;;;9.05;6.95;;;;;;;;;;10333348;28;20030;-56
2022/12/19 18:46:43;;;;;;;13.23;6.93;;;;;;;;;;10334971;28;20034;-60
2022/12/19 18:51:44;;;;;;;12.07;7.07;;;;;;;;;;10327540;28;20085;-54
2022/12/19 18:56:45;;;;;;;9.63;6.78;;;;;;;;;;10334858;28;20050;-52
2022/12/19 19:01:46;;;;;;;11.05;6.95;;;;;;;;;;10332974;28;20041;-53
2022/12/19 19:06:48;;;;;;;11.40;7.15;;;;;;;;;;10339457;28;20018;-56
2022/12/19 19:11:49;;;;;;;13.05;7.88;;;;;;;;;;10332438;28;20035;-58
2022/12/19 19:16:51;;;;;;;11.15;7.78;;;;;;;;;;10325285;28;20026;-54
2022/12/19 19:21:51;;;;;;;12.07;8.55;;;;;;;;;;10332853;28;20078;-58
2022/12/19 19:26:52;;;;;;;19.17;9.30;;;;;;;;;;10336196;28;20104;-57
2022/12/19 19:31:52;;;;;;;16.48;9.43;;;;;;;;;;10328332;28;20033;-59
2022/12/19 19:36:56;;;;;;;25.48;9.60;;;;;;;;;;10320449;28;20042;-59
2022/12/19 19:41:56;;;;;;;30.50;11.48;;;;;;;;;;10332023;28;20046;-59
2022/12/19 19:46:58;;;;;;;26.15;10.40;;;;;;;;;;10328300;28;20041;-59
2022/12/19 19:51:58;;;;;;;21.10;11.05;;;;;;;;;;10316733;28;20014;-59
2022/12/19 19:56:59;;;;;;;19.50;10.60;;;;;;;;;;10316833;28;20053;-58
2022/12/19 20:02:00;;;;;;;21.95;10.13;;;;;;;;;;10322861;28;20092;-59
2022/12/19 20:07:00;;;;;;;18.48;9.57;;;;;;;;;;10322742;28;20026;-59
2022/12/19 20:12:01;;;;;;;18.30;9.00;;;;;;;;;;10325980;28;20113;-58
2022/12/19 20:17:02;;;;;;;15.88;9.52;;;;;;;;;;10319819;28;20027;-58
2022/12/19 20:22:03;;;;;;;19.38;9.82;;;;;;;;;;10321452;28;20474;-62
2022/12/19 20:27:03;;;;;;;14.98;9.10;;;;;;;;;;10315299;28;20041;-58
2022/12/19 20:32:04;;;;;;;15.63;9.32;;;;;;;;;;10328314;28;20041;-58
2022/12/19 20:37:05;;;;;;;14.40;8.90;;;;;;;;;;10326703;28;20046;-58
2022/12/19 20:42:08;;;;;;;12.80;9.18;;;;;;;;;;10320498;28;20916;-58
2022/12/19 20:47:08;;;;;;;15.65;9.18;;;;;;;;;;10320082;28;20033;-58
2022/12/19 20:52:09;;;;;;;16.38;8.73;;;;;;;;;;10314827;28;20034;-58
2022/12/19 20:57:10;;;;;;;15.15;8.60;;;;;;;;;;10315953;28;20434;-58
2022/12/19 21:02:10;;;;;;;15.73;9.35;;;;;;;;;;10323929;28;20053;-63
2022/12/19 21:07:11;;;;;;;18.05;8.73;;;;;;;;;;10318361;28;20041;-58
2022/12/19 21:12:11;;;;;;;17.33;8.55;;;;;;;;;;10325148;28;20084;-58
2022/12/19 21:17:12;;;;;;;16.17;8.35;;;;;;;;;;10321671;28;20042;-58
2022/12/19 21:22:13;;;;;;;16.23;8.63;;;;;;;;;;10320542;28;20030;-58
2022/12/19 21:27:13;;;;;;;15.00;9.70;;;;;;;;;;10323259;28;20042;-61
2022/12/19 21:32:14;;;;;;;14.27;9.95;;;;;;;;;;10318480;28;20035;-59
2022/12/19 21:37:15;;;;;;;19.58;11.38;;;;;;;;;;10314935;28;20026;-58
2022/12/19 21:42:15;;;;;;;20.30;10.60;;;;;;;;;;10319751;28;20470;-59
2022/12/19 21:47:16;;;;;;;17.27;10.52;;;;;;;;;;10322967;28;20497;-59
2022/12/19 21:52:17;;;;;;;20.92;10.50;;;;;;;;;;10318985;28;20108;-58
2022/12/19 21:57:17;;;;;;;20.75;11.48;;;;;;;;;;10329301;28;20034;-58
2022/12/19 22:02:18;;;;;;;23.25;11.90;;;;;;;;;;10329058;28;20030;-56
2022/12/19 22:07:18;;;;;;;23.35;11.35;;;;;;;;;;10337059;28;20057;-59
2022/12/19 22:12:19;;;;;;;23.13;12.07;;;;;;;;;;10331357;28;20022;-58
2022/12/19 22:17:20;;;;;;;23.25;11.82;;;;;;;;;;10327020;28;20037;-58
2022/12/19 22:22:20;;;;;;;44.90;13.23;;;;;;;;;;10327478;28;20106;-58
2022/12/19 22:27:21;;;;;;;35.70;13.00;;;;;;;;;;10326363;28;20089;-57
2022/12/19 22:32:21;;;;;;;28.35;12.13;;;;;;;;;;10328931;28;20041;-58
2022/12/19 22:37:22;;;;;;;27.63;12.52;;;;;;;;;;10333062;28;20033;-58
2022/12/19 22:42:22;;;;;;;23.73;12.68;;;;;;;;;;10329226;28;20077;-62
2022/12/19 22:47:23;;;;;;;22.67;12.18;;;;;;;;;;10331848;28;20031;-58
2022/12/19 22:52:24;;;;;;;24.17;11.88;;;;;;;;;;10326298;28;20478;-61
2022/12/19 22:57:24;;;;;;;27.60;12.05;;;;;;;;;;10328004;28;20030;-56
2022/12/19 23:02:25;;;;;;;29.15;12.43;;;;;;;;;;10336209;28;20097;-58
2022/12/19 23:07:25;;;;;;;29.95;12.25;;;;;;;;;;10330843;28;20034;-58
2022/12/19 23:12:26;;;;;;;33.08;12.15;;;;;;;;;;10336096;28;20218;-59
2022/12/19 23:17:27;;;;;;;23.20;11.63;;;;;;;;;;10329254;28;20068;-59
2022/12/19 23:22:28;;;;;;;27.83;12.07;;;;;;;;;;10326612;28;20027;-59
2022/12/19 23:27:28;;;;;;;20.60;11.90;;;;;;;;;;10320907;28;20065;-59
2022/12/19 23:32:29;;;;;;;20.50;11.98;;;;;;;;;;10336423;28;20509;-59
2022/12/19 23:37:29;;;;;;;22.90;12.10;;;;;;;;;;10329332;28;20149;-59
2022/12/19 23:42:30;;;;;;;22.17;12.02;;;;;;;;;;10326332;28;20042;-59
2022/12/19 23:47:30;;;;;;;25.58;10.77;;;;;;;;;;10326698;28;20073;-58
2022/12/19 23:52:31;;;;;;;28.83;10.50;;;;;;;;;;10325878;28;20027;-58
2022/12/19 23:57:32;;;;;;;24.95;10.52;;;;;;;;;;10335181;28;20092;-59
